Time,TemperatureF,DewpointF,PressureIn,WindDirection,WindDirectionDegrees,WindSpeedMPH,WindSpeedGustMPH,Humidity,HourlyPrecipIn,Conditions,Clouds,dailyrainin,SolarRadiationWatts/m^2,SoftwareType,DateUTC
2013-03-10 00:02:00,33.2,26.0,30.25,ESE,107,0.0,-999.0,74,-99.99,,,0.00,0,weatherlink.com 1.10,2013-03-10 05:02:00,
2013-03-10 00:17:00,32.6,26.0,30.25,ESE,107,0.0,-999.0,75,-99.99,,,0.00,0,weatherlink.com 1.10,2013-03-10 05:17:00,
2013-03-10 00:32:00,32.6,27.0,30.25,ESE,107,5.0,-999.0,79,-99.99,,,0.00,0,weatherlink.com 1.10,2013-03-10 05:32:00,
2013-03-10 00:47:00,33.2,27.0,30.25,ESE,120,2.0,-999.0,79,-99.99,,,0.00,0,weatherlink.com 1.10,2013-03-10 05:47:00,
2013-03-10 01:02:00,32.7,28.0,30.24,ESE,112,6.0,-999.0,81,-99.99,,,0.00,0,weatherlink.com 1.10,2013-03-10 06:02:00,
2013-03-10 01:17:00,33.8,29.0,30.24,SE,129,10.0,-999.0,83,-99.99,,,0.00,0,weatherlink.com 1.10,2013-03-10 06:17:00,
2013-03-10 01:32:00,34.6,30.0,30.23,SE,132,8.0,-999.0,82,-99.99,,,0.00,0,weatherlink.com 1.10,2013-03-10 06:32:00,
2013-03-10 01:47:00,34.2,29.0,30.23,ESE,111,0.0,-999.0,82,-99.99,,,0.00,0,weatherlink.com 1.10,2013-03-10 06:47:00,
2013-03-10 03:02:00,33.9,29.0,30.23,ESE,111,1.0,-999.0,83,-99.99,,,0.00,0,weatherlink.com 1.10,2013-03-10 07:02:00,
2013-03-10 03:17:00,34.2,29.0,30.22,East,98,7.0,-999.0,81,-99.99,,,0.00,0,weatherlink.com 1.10,2013-03-10 07:17:00,
2013-03-10 03:32:00,34.1,28.0,30.21,ESE,107,6.0,-999.0,79,-99.99,,,0.00,0,weatherlink.com 1.10,2013-03-10 07:32:00,
2013-03-10 03:47:00,33.9,28.0,30.20,ESE,103,5.0,-999.0,78,-99.99,,,0.00,0,weatherlink.com 1.10,2013-03-10 07:47:00,
2013-03-10 04:02:00,34.3,28.0,30.19,ESE,107,6.0,-999.0,77,-99.99,,,0.00,0,weatherlink.com 1.10,2013-03-10 08:02:00,
2013-03-10 04:17:00,35.5,28.0,30.19,ESE,121,9.0,-999.0,74,-99.99,,,0.00,0,weatherlink.com 1.10,2013-03-10 08:17:00,
2013-03-10 04:32:00,35.8,28.0,30.19,East,98,7.0,-999.0,73,-99.99,,,0.00,0,weatherlink.com 1.10,2013-03-10 08:32:00,
2013-03-10 04:47:00,36.3,28.0,30.19,ESE,115,6.0,-999.0,71,-99.99,,,0.00,0,weatherlink.com 1.10,2013-03-10 08:47:00,
2013-03-10 05:02:00,37.0,28.0,30.19,ESE,106,6.0,-999.0,69,-99.99,,,0.00,0,weatherlink.com 1.10,2013-03-10 09:02:00,
2013-03-10 05:17:00,37.1,28.0,30.18,ESE,117,5.0,-999.0,69,-99.99,,,0.00,0,weatherlink.com 1.10,2013-03-10 09:17:00,
2013-03-10 05:32:00,37.2,27.0,30.19,ESE,105,0.0,-999.0,68,-99.99,,,0.00,0,weatherlink.com 1.10,2013-03-10 09:32:00,
2013-03-10 05:47:00,36.8,27.0,30.19,ESE,110,5.0,-999.0,69,-99.99,,,0.00,0,weatherlink.com 1.10,2013-03-10 09:47:00,
2013-03-10 06:02:00,37.0,28.0,30.18,East,101,6.0,-999.0,69,-99.99,,,0.00,0,weatherlink.com 1.10,2013-03-10 10:02:00,
2013-03-10 06:17:00,37.1,28.0,30.17,East,88,5.0,-999.0,69,-99.99,,,0.00,0,weatherlink.com 1.10,2013-03-10 10:17:00,
2013-03-10 06:32:00,37.0,28.0,30.17,East,101,9.0,-999.0,69,-99.99,,,0.00,0,weatherlink.com 1.10,2013-03-10 10:32:00,
2013-03-10 06:47:00,36.8,27.0,30.16,East,98,5.0,-999.0,69,-99.99,,,0.00,0,weatherlink.com 1.10,2013-03-10 10:47:00,
2013-03-10 07:02:00,37.5,27.0,30.16,ESE,103,8.0,-999.0,67,-99.99,,,0.00,0,weatherlink.com 1.10,2013-03-10 11:02:00,
2013-03-10 07:17:00,38.3,27.0,30.16,East,101,7.0,-999.0,65,-99.99,,,0.00,0,weatherlink.com 1.10,2013-03-10 11:17:00,
2013-03-10 07:32:00,38.9,27.0,30.16,SE,139,8.0,-999.0,63,-99.99,,,0.00,0,weatherlink.com 1.10,2013-03-10 11:32:00,
2013-03-10 07:47:00,39.5,27.0,30.16,ESE,111,5.0,-999.0,62,-99.99,,,0.00,12,weatherlink.com 1.10,2013-03-10 11:47:00,
2013-03-10 08:02:00,40.1,27.0,30.16,SE,142,7.0,-999.0,61,-99.99,,,0.00,25,weatherlink.com 1.10,2013-03-10 12:02:00,
2013-03-10 08:18:00,40.8,28.0,30.16,SE,142,10.0,-999.0,60,-99.99,,,0.00,37,weatherlink.com 1.10,2013-03-10 12:18:00,
2013-03-10 08:33:00,41.4,28.0,30.16,SE,129,9.0,-999.0,59,-99.99,,,0.00,47,weatherlink.com 1.10,2013-03-10 12:33:00,
2013-03-10 08:48:00,41.8,28.0,30.16,ESE,112,7.0,-999.0,58,-99.99,,,0.00,69,weatherlink.com 1.10,2013-03-10 12:48:00,
2013-03-10 09:03:00,42.1,28.0,30.15,SE,132,12.0,-999.0,57,-99.99,,,0.00,81,weatherlink.com 1.10,2013-03-10 13:03:00,
2013-03-10 09:18:00,43.0,28.0,30.15,SE,135,14.0,-999.0,55,-99.99,,,0.00,114,weatherlink.com 1.10,2013-03-10 13:18:00,
2013-03-10 09:33:00,43.9,27.0,30.14,SE,135,16.0,-999.0,52,-99.99,,,0.00,116,weatherlink.com 1.10,2013-03-10 13:33:00,
2013-03-10 09:48:00,44.6,27.0,30.14,East,95,18.0,-999.0,50,-99.99,,,0.00,91,weatherlink.com 1.10,2013-03-10 13:48:00,
2013-03-10 10:03:00,44.7,27.0,30.14,ESE,123,15.0,-999.0,50,-99.99,,,0.00,107,weatherlink.com 1.10,2013-03-10 14:03:00,
2013-03-10 10:18:00,45.2,27.0,30.15,SE,126,16.0,-999.0,49,-99.99,,,0.00,141,weatherlink.com 1.10,2013-03-10 14:18:00,
2013-03-10 10:33:00,46.0,27.0,30.14,East,98,11.0,-999.0,48,-99.99,,,0.00,378,weatherlink.com 1.10,2013-03-10 14:33:00,
2013-03-10 10:48:00,46.7,27.0,30.14,East,98,14.0,-999.0,47,-99.99,,,0.00,628,weatherlink.com 1.10,2013-03-10 14:48:00,
2013-03-10 11:03:00,47.9,27.0,30.14,SE,129,16.0,-999.0,45,-99.99,,,0.00,244,weatherlink.com 1.10,2013-03-10 15:03:00,
2013-03-10 11:18:00,48.2,28.0,30.13,SE,129,19.0,-999.0,45,-99.99,,,0.00,272,weatherlink.com 1.10,2013-03-10 15:18:00,
2013-03-10 11:33:00,48.8,28.0,30.13,ESE,120,16.0,-999.0,44,-99.99,,,0.00,657,weatherlink.com 1.10,2013-03-10 15:33:00,
2013-03-10 11:48:00,49.4,28.0,30.13,ESE,118,10.0,-999.0,43,-99.99,,,0.00,332,weatherlink.com 1.10,2013-03-10 15:48:00,
2013-03-10 12:03:00,49.8,28.0,30.12,SE,135,15.0,-999.0,43,-99.99,,,0.00,299,weatherlink.com 1.10,2013-03-10 16:03:00,
2013-03-10 12:18:00,50.5,29.0,30.12,SE,127,16.0,-999.0,43,-99.99,,,0.00,353,weatherlink.com 1.10,2013-03-10 16:18:00,
2013-03-10 12:33:00,50.9,28.0,30.12,East,98,12.0,-999.0,42,-99.99,,,0.00,373,weatherlink.com 1.10,2013-03-10 16:33:00,
2013-03-10 12:48:00,51.4,28.0,30.12,SE,131,10.0,-999.0,41,-99.99,,,0.00,313,weatherlink.com 1.10,2013-03-10 16:48:00,
2013-03-10 13:03:00,51.7,28.0,30.10,East,95,13.0,-999.0,41,-99.99,,,0.00,221,weatherlink.com 1.10,2013-03-10 17:03:00,
2013-03-10 13:18:00,52.7,29.0,30.10,SE,131,12.0,-999.0,41,-99.99,,,0.00,392,weatherlink.com 1.10,2013-03-10 17:18:00,
2013-03-10 13:34:00,54.3,29.0,30.10,SE,140,18.0,-999.0,38,-99.99,,,0.00,253,weatherlink.com 1.10,2013-03-10 17:34:00,
2013-03-10 13:49:00,54.6,29.0,30.09,SE,132,14.0,-999.0,38,-99.99,,,0.00,248,weatherlink.com 1.10,2013-03-10 17:49:00,
2013-03-10 14:04:00,55.0,30.0,30.08,SE,137,9.0,-999.0,38,-99.99,,,0.00,309,weatherlink.com 1.10,2013-03-10 18:04:00,
2013-03-10 14:19:00,55.9,29.0,30.08,SE,139,20.0,-999.0,36,-99.99,,,0.00,297,weatherlink.com 1.10,2013-03-10 18:19:00,
2013-03-10 14:34:00,56.5,31.0,30.07,ESE,117,12.0,-999.0,38,-99.99,,,0.00,294,weatherlink.com 1.10,2013-03-10 18:34:00,
2013-03-10 14:49:00,56.8,28.0,30.07,SE,135,11.0,-999.0,33,-99.99,,,0.00,232,weatherlink.com 1.10,2013-03-10 18:49:00,
2013-03-10 15:04:00,56.8,29.0,30.06,ESE,120,11.0,-999.0,34,-99.99,,,0.00,297,weatherlink.com 1.10,2013-03-10 19:04:00,
2013-03-10 15:19:00,57.2,28.0,30.05,SSE,159,10.0,-999.0,33,-99.99,,,0.00,322,weatherlink.com 1.10,2013-03-10 19:19:00,
2013-03-10 15:34:00,57.4,29.0,30.05,SE,135,9.0,-999.0,34,-99.99,,,0.00,346,weatherlink.com 1.10,2013-03-10 19:34:00,
2013-03-10 15:49:00,58.0,30.0,30.05,ESE,113,11.0,-999.0,34,-99.99,,,0.00,353,weatherlink.com 1.10,2013-03-10 19:49:00,
2013-03-10 16:04:00,58.2,29.0,30.04,ESE,106,25.0,-999.0,33,-99.99,,,0.00,332,weatherlink.com 1.10,2013-03-10 20:04:00,
2013-03-10 16:19:00,58.4,30.0,30.03,SE,130,14.0,-999.0,34,-99.99,,,0.00,512,weatherlink.com 1.10,2013-03-10 20:19:00,
2013-03-10 16:34:00,58.4,31.0,30.02,SE,139,11.0,-999.0,35,-99.99,,,0.00,438,weatherlink.com 1.10,2013-03-10 20:34:00,
2013-03-10 16:49:00,58.6,30.0,30.02,ESE,102,22.0,-999.0,34,-99.99,,,0.00,341,weatherlink.com 1.10,2013-03-10 20:49:00,
2013-03-10 17:04:00,58.0,30.0,30.02,ESE,121,19.0,-999.0,35,-99.99,,,0.00,299,weatherlink.com 1.10,2013-03-10 21:04:00,
2013-03-10 17:19:00,57.6,30.0,30.02,SSE,155,19.0,-999.0,35,-99.99,,,0.00,139,weatherlink.com 1.10,2013-03-10 21:19:00,
2013-03-10 17:34:00,57.1,30.0,30.02,SE,128,22.0,-999.0,36,-99.99,,,0.00,95,weatherlink.com 1.10,2013-03-10 21:34:00,
2013-03-10 17:49:00,56.7,30.0,30.02,SE,144,20.0,-999.0,37,-99.99,,,0.00,100,weatherlink.com 1.10,2013-03-10 21:49:00,
2013-03-10 18:04:00,56.2,30.0,30.02,SE,124,20.0,-999.0,37,-99.99,,,0.00,33,weatherlink.com 1.10,2013-03-10 22:04:00,
2013-03-10 18:19:00,55.9,30.0,30.01,ESE,106,15.0,-999.0,38,-99.99,,,0.00,39,weatherlink.com 1.10,2013-03-10 22:19:00,
2013-03-10 18:34:00,55.7,31.0,30.01,SE,132,18.0,-999.0,39,-99.99,,,0.00,46,weatherlink.com 1.10,2013-03-10 22:34:00,
2013-03-10 18:50:00,55.5,31.0,30.01,ESE,121,12.0,-999.0,39,-99.99,,,0.00,18,weatherlink.com 1.10,2013-03-10 22:50:00,
2013-03-10 19:04:00,54.6,31.0,30.02,SE,136,14.0,-999.0,41,-99.99,,,0.00,0,weatherlink.com 1.10,2013-03-10 23:04:00,
2013-03-10 19:19:00,53.6,31.0,30.02,ESE,117,18.0,-999.0,42,-99.99,,,0.00,0,weatherlink.com 1.10,2013-03-10 23:19:00,
2013-03-10 19:34:00,53.3,31.0,30.02,SE,130,12.0,-999.0,43,-99.99,,,0.00,0,weatherlink.com 1.10,2013-03-10 23:34:00,
2013-03-10 19:49:00,53.2,30.0,30.03,SE,132,20.0,-999.0,42,-99.99,,,0.00,0,weatherlink.com 1.10,2013-03-10 23:49:00,
2013-03-10 20:04:00,53.0,31.0,30.04,SSE,165,8.0,-999.0,43,-99.99,,,0.00,0,weatherlink.com 1.10,2013-03-11 00:04:00,
2013-03-10 20:19:00,52.7,31.0,30.05,ESE,117,10.0,-999.0,44,-99.99,,,0.00,0,weatherlink.com 1.10,2013-03-11 00:19:00,
2013-03-10 20:34:00,52.5,31.0,30.05,ESE,120,9.0,-999.0,44,-99.99,,,0.00,0,weatherlink.com 1.10,2013-03-11 00:34:00,
2013-03-10 20:49:00,52.2,31.0,30.04,ESE,120,10.0,-999.0,45,-99.99,,,0.00,0,weatherlink.com 1.10,2013-03-11 00:49:00,
2013-03-10 21:04:00,51.8,31.0,30.04,ESE,111,7.0,-999.0,46,-99.99,,,0.00,0,weatherlink.com 1.10,2013-03-11 01:04:00,
2013-03-10 21:19:00,51.5,32.0,30.05,SE,125,5.0,-999.0,47,-99.99,,,0.00,0,weatherlink.com 1.10,2013-03-11 01:19:00,
2013-03-10 21:34:00,51.6,32.0,30.04,East,94,7.0,-999.0,47,-99.99,,,0.00,0,weatherlink.com 1.10,2013-03-11 01:34:00,
2013-03-10 21:49:00,51.5,32.0,30.05,East,82,4.0,-999.0,47,-99.99,,,0.00,0,weatherlink.com 1.10,2013-03-11 01:49:00,
2013-03-10 22:04:00,51.6,32.0,30.05,ESE,119,5.0,-999.0,47,-99.99,,,0.00,0,weatherlink.com 1.10,2013-03-11 02:04:00,
2013-03-10 22:19:00,51.6,32.0,30.05,ESE,115,9.0,-999.0,47,-99.99,,,0.00,0,weatherlink.com 1.10,2013-03-11 02:19:00,
2013-03-10 22:34:00,51.7,32.0,30.06,SE,134,11.0,-999.0,47,-99.99,,,0.00,0,weatherlink.com 1.10,2013-03-11 02:34:00,
2013-03-10 22:49:00,51.6,32.0,30.05,SE,145,12.0,-999.0,47,-99.99,,,0.00,0,weatherlink.com 1.10,2013-03-11 02:49:00,
2013-03-10 23:04:00,51.6,32.0,30.04,SE,136,7.0,-999.0,47,-99.99,,,0.00,0,weatherlink.com 1.10,2013-03-11 03:04:00,
2013-03-10 23:19:00,51.6,31.0,30.04,SE,128,9.0,-999.0,46,-99.99,,,0.00,0,weatherlink.com 1.10,2013-03-11 03:19:00,
2013-03-10 23:34:00,51.3,31.0,30.03,SE,138,18.0,-999.0,47,-99.99,,,0.00,0,weatherlink.com 1.10,2013-03-11 03:34:00,
2013-03-10 23:49:00,51.2,31.0,30.01,East,82,11.0,-999.0,46,-99.99,,,0.00,0,weatherlink.com 1.10,2013-03-11 03:49:00,